createdAt,value
2022-10-30T00:00:41.390Z,10.69
2022-10-30T00:03:25.181Z,10.67
2022-10-30T00:06:09.486Z,10.63
2022-10-30T00:08:53.357Z,10.78
2022-10-30T00:11:37.108Z,10.40
2022-10-30T00:14:22.257Z,10.29
2022-10-30T00:17:05.990Z,10.58
2022-10-30T00:19:49.753Z,10.75
2022-10-30T00:22:33.512Z,10.60
2022-10-30T00:25:17.537Z,10.45
2022-10-30T00:28:01.296Z,10.31
2022-10-30T00:30:46.408Z,10.40
2022-10-30T00:33:30.189Z,10.23
2022-10-30T00:36:14.798Z,10.35
2022-10-30T00:38:59.617Z,10.37
2022-10-30T00:41:46.775Z,10.39
2022-10-30T00:44:39.181Z,10.32
2022-10-30T00:47:28.995Z,10.44
2022-10-30T00:50:16.586Z,10.30
2022-10-30T00:53:08.535Z,10.34
2022-10-30T00:55:56.113Z,10.22
2022-10-30T00:58:46.146Z,10.27
2022-10-30T01:01:35.200Z,10.08
2022-10-30T01:04:25.884Z,10.22
2022-10-30T01:07:16.464Z,10.10
2022-10-30T01:10:01.014Z,10.16
2022-10-30T01:12:48.602Z,10.06
2022-10-30T01:15:36.975Z,10.17
2022-10-30T01:18:36.663Z,10.07
2022-10-30T01:21:39.100Z,10.38
2022-10-30T01:24:40.019Z,10.29
2022-10-30T01:27:40.556Z,10.20
2022-10-30T01:30:42.785Z,9.98
2022-10-30T01:33:38.055Z,9.90
2022-10-30T01:36:30.278Z,9.98
2022-10-30T01:39:17.525Z,10.23
2022-10-30T01:42:01.463Z,10.18
2022-10-30T01:44:45.263Z,10.00
2022-10-30T01:47:44.114Z,9.78
2022-10-30T01:50:38.508Z,9.96
2022-10-30T01:53:36.290Z,10.04
2022-10-30T01:56:30.012Z,9.37
2022-10-30T01:59:24.655Z,9.85
2022-10-30T02:02:09.516Z,9.51
2022-10-30T02:04:54.129Z,9.57
2022-10-30T02:07:38.506Z,9.84
2022-10-30T02:10:25.755Z,9.70
2022-10-30T02:13:09.950Z,9.66
2022-10-30T02:15:54.215Z,9.69
2022-10-30T02:18:38.108Z,9.85
2022-10-30T02:21:23.545Z,9.89
2022-10-30T02:24:08.309Z,9.80
2022-10-30T02:26:52.278Z,9.83
2022-10-30T02:29:36.123Z,9.51
2022-10-30T02:32:19.726Z,9.72
2022-10-30T02:35:03.634Z,9.77
2022-10-30T02:37:50.650Z,9.66
2022-10-30T02:40:34.405Z,9.49
2022-10-30T02:43:18.058Z,9.69
2022-10-30T02:46:01.860Z,9.52
2022-10-30T02:48:45.607Z,9.60
2022-10-30T02:51:32.619Z,9.60
2022-10-30T02:54:18.134Z,9.39
2022-10-30T02:57:02.803Z,9.40
2022-10-30T02:59:46.770Z,9.19
2022-10-30T03:02:30.758Z,9.47
2022-10-30T03:05:14.887Z,9.37
2022-10-30T03:07:59.111Z,9.51
2022-10-30T03:10:44.993Z,9.18
2022-10-30T03:13:30.116Z,9.31
2022-10-30T03:16:16.102Z,9.35
2022-10-30T03:19:00.029Z,9.34
2022-10-30T03:21:43.969Z,9.34
2022-10-30T03:24:30.322Z,9.34
2022-10-30T03:27:15.758Z,8.55
2022-10-30T03:29:59.841Z,8.61
2022-10-30T03:32:44.044Z,8.66
2022-10-30T03:35:27.988Z,8.84
2022-10-30T03:38:12.245Z,8.83
2022-10-30T03:40:56.461Z,8.83
2022-10-30T03:43:43.019Z,9.09
2022-10-30T03:46:27.039Z,9.06
2022-10-30T03:49:19.015Z,8.81
2022-10-30T03:52:03.131Z,8.83
2022-10-30T03:54:47.061Z,8.95
2022-10-30T03:57:37.387Z,9.09
2022-10-30T04:00:30.272Z,9.03
2022-10-30T04:03:16.018Z,9.06
2022-10-30T04:06:00.355Z,9.01
2022-10-30T04:08:44.333Z,9.02
2022-10-30T04:11:28.436Z,8.86
2022-10-30T04:14:12.404Z,8.84
2022-10-30T04:16:57.809Z,9.11
2022-10-30T04:19:41.913Z,8.82
2022-10-30T04:22:27.321Z,9.07
2022-10-30T04:25:11.426Z,9.05
2022-10-30T04:27:56.349Z,8.98
2022-10-30T04:30:40.687Z,9.00
2022-10-30T04:33:25.873Z,9.00
2022-10-30T04:36:11.268Z,8.95
2022-10-30T04:38:55.061Z,8.80
2022-10-30T04:41:42.200Z,8.61
2022-10-30T04:44:32.736Z,8.53
2022-10-30T04:47:17.456Z,8.84
2022-10-30T04:50:03.766Z,8.52
2022-10-30T04:52:49.348Z,8.85
2022-10-30T04:55:34.052Z,8.79
2022-10-30T04:58:17.875Z,8.86
2022-10-30T05:01:07.581Z,8.89
2022-10-30T05:03:54.742Z,9.05
2022-10-30T05:06:40.816Z,9.08
2022-10-30T05:09:24.711Z,9.22
2022-10-30T05:12:09.197Z,9.17
2022-10-30T05:15:03.660Z,8.42
2022-10-30T05:17:53.263Z,9.41
2022-10-30T05:20:37.492Z,9.34
2022-10-30T05:23:22.686Z,9.51
2022-10-30T05:26:06.876Z,9.68
2022-10-30T05:28:51.724Z,8.89
2022-10-30T05:31:36.147Z,9.86
2022-10-30T05:34:38.545Z,9.78
2022-10-30T05:37:22.401Z,10.16
2022-10-30T05:40:08.810Z,10.24
2022-10-30T05:42:52.914Z,10.33
2022-10-30T05:45:37.175Z,10.26
2022-10-30T05:48:22.417Z,10.56
2022-10-30T05:51:08.558Z,10.62
2022-10-30T05:53:55.040Z,11.01
2022-10-30T05:56:44.109Z,11.18
2022-10-30T05:59:29.166Z,11.28
2022-10-30T06:02:13.087Z,11.44
2022-10-30T06:04:56.982Z,11.42
2022-10-30T06:07:40.746Z,11.49
2022-10-30T06:10:24.870Z,11.49
2022-10-30T06:13:45.246Z,11.56
2022-10-30T06:19:34.737Z,11.72
2022-10-30T06:23:01.806Z,11.86
2022-10-30T06:25:57.528Z,11.83
2022-10-30T06:29:09.245Z,11.89
2022-10-30T06:31:53.080Z,12.00
2022-10-30T06:34:37.000Z,12.01
2022-10-30T06:37:20.924Z,12.12
2022-10-30T06:40:07.346Z,12.27
2022-10-30T06:43:10.962Z,12.36
2022-10-30T06:48:59.348Z,12.51
2022-10-30T06:51:43.752Z,12.65
2022-10-30T06:54:28.425Z,12.72
2022-10-30T06:57:35.507Z,12.83
2022-10-30T07:00:39.528Z,12.72
2022-10-30T07:03:43.170Z,12.76
2022-10-30T07:06:27.088Z,13.00
2022-10-30T07:09:11.750Z,13.03
2022-10-30T07:11:56.969Z,13.11
2022-10-30T07:15:04.345Z,12.86
2022-10-30T07:18:17.487Z,13.14
2022-10-30T07:21:03.553Z,13.12
2022-10-30T07:23:48.802Z,13.27
2022-10-30T07:26:52.885Z,12.47
2022-10-30T07:29:55.384Z,13.51
2022-10-30T07:32:42.858Z,13.34
2022-10-30T07:35:37.879Z,13.71
2022-10-30T07:38:36.293Z,13.50
2022-10-30T07:41:34.828Z,13.90
2022-10-30T07:44:37.278Z,14.12
2022-10-30T07:47:34.284Z,14.23
2022-10-30T07:50:26.381Z,14.33
2022-10-30T07:53:10.134Z,14.37
2022-10-30T07:55:55.371Z,14.36
2022-10-30T07:58:58.046Z,14.38
2022-10-30T08:01:55.736Z,14.77
2022-10-30T08:04:49.455Z,14.95
2022-10-30T08:07:50.005Z,15.01
2022-10-30T08:10:34.136Z,15.19
2022-10-30T08:13:20.606Z,15.07
2022-10-30T08:16:04.551Z,14.82
2022-10-30T08:18:48.473Z,15.15
2022-10-30T08:21:32.278Z,15.50
2022-10-30T08:24:21.112Z,15.50
2022-10-30T08:27:13.568Z,15.74
2022-10-30T08:29:58.915Z,15.84
2022-10-30T08:32:42.819Z,15.82
2022-10-30T08:35:51.910Z,16.09
2022-10-30T08:38:35.760Z,16.25
2022-10-30T08:41:36.826Z,15.90
2022-10-30T08:44:21.340Z,16.11
2022-10-30T08:47:26.657Z,15.68
2022-10-30T08:50:11.054Z,16.38
2022-10-30T08:52:55.012Z,16.57
2022-10-30T08:55:39.224Z,16.79
2022-10-30T08:58:30.005Z,16.78
2022-10-30T09:01:14.744Z,17.00
2022-10-30T09:04:18.622Z,17.19
2022-10-30T09:07:21.228Z,17.32
2022-10-30T09:10:23.703Z,17.46
2022-10-30T09:13:09.315Z,17.21
2022-10-30T09:15:53.557Z,17.79
2022-10-30T09:18:37.928Z,17.89
2022-10-30T09:21:23.780Z,18.01
2022-10-30T09:24:10.243Z,18.04
2022-10-30T09:26:53.961Z,18.34
2022-10-30T09:29:44.599Z,18.52
2022-10-30T09:32:38.102Z,18.59
2022-10-30T09:35:26.690Z,19.00
2022-10-30T09:38:13.160Z,19.21
2022-10-30T09:41:29.978Z,19.42
2022-10-30T09:44:29.484Z,19.29
2022-10-30T09:47:27.192Z,19.50
2022-10-30T09:50:27.178Z,19.61
2022-10-30T09:53:26.710Z,19.60
2022-10-30T09:56:19.889Z,19.65
2022-10-30T09:59:12.177Z,19.85
2022-10-30T10:02:03.319Z,19.84
2022-10-30T10:04:53.624Z,19.76
2022-10-30T10:08:00.080Z,20.32
2022-10-30T10:11:15.367Z,20.52
2022-10-30T10:14:03.036Z,20.59
2022-10-30T10:16:53.058Z,20.75
2022-10-30T10:19:42.688Z,20.69
2022-10-30T10:22:28.560Z,19.75
2022-10-30T10:25:16.684Z,20.53
2022-10-30T10:28:23.276Z,20.48
2022-10-30T10:31:17.311Z,20.69
2022-10-30T10:34:20.406Z,20.81
2022-10-30T10:37:16.291Z,20.85
2022-10-30T10:40:17.655Z,21.23
2022-10-30T10:43:16.017Z,21.36
2022-10-30T10:46:21.146Z,21.24
2022-10-30T10:49:29.646Z,21.02
2022-10-30T10:52:18.028Z,21.00
2022-10-30T10:55:06.237Z,21.13
2022-10-30T10:57:51.098Z,21.20
2022-10-30T11:00:36.370Z,21.50
2022-10-30T11:03:24.370Z,21.37
2022-10-30T11:06:21.383Z,21.40
2022-10-30T11:09:16.596Z,21.60
2022-10-30T11:12:00.420Z,20.99
2022-10-30T11:14:44.267Z,21.74
2022-10-30T11:17:38.166Z,21.90
2022-10-30T11:20:30.862Z,21.79
2022-10-30T11:23:35.414Z,21.91
2022-10-30T11:26:29.529Z,21.96
2022-10-30T11:29:15.120Z,21.82
2022-10-30T11:32:03.576Z,21.67
2022-10-30T11:34:48.722Z,21.75
2022-10-30T11:37:34.287Z,22.09
2022-10-30T11:40:21.029Z,21.93
2022-10-30T11:43:06.450Z,22.27
2022-10-30T11:45:51.544Z,22.05
2022-10-30T11:48:37.588Z,22.56
2022-10-30T11:51:32.839Z,22.61
2022-10-30T11:54:22.104Z,22.61
2022-10-30T11:57:12.477Z,22.39
2022-10-30T12:00:03.756Z,22.68
2022-10-30T12:02:57.622Z,22.69
2022-10-30T12:05:45.158Z,23.06
2022-10-30T12:08:30.358Z,23.38
2022-10-30T12:11:14.018Z,23.12
2022-10-30T12:13:58.820Z,23.28
2022-10-30T12:16:46.817Z,23.19
2022-10-30T12:19:32.446Z,23.15
2022-10-30T12:22:26.688Z,22.90
2022-10-30T12:25:24.656Z,23.06
2022-10-30T12:28:14.571Z,23.28
2022-10-30T12:31:04.927Z,23.12
2022-10-30T12:33:54.538Z,22.95
2022-10-30T12:36:46.168Z,23.08
2022-10-30T12:39:37.496Z,23.76
2022-10-30T12:42:24.989Z,23.64
2022-10-30T12:45:14.818Z,23.47
2022-10-30T12:48:03.582Z,23.48
2022-10-30T12:50:57.152Z,23.47
2022-10-30T12:53:47.848Z,23.51
2022-10-30T12:56:37.120Z,23.55
2022-10-30T12:59:33.019Z,23.47
2022-10-30T13:02:37.742Z,23.14
2022-10-30T13:05:29.845Z,22.94
2022-10-30T13:08:21.914Z,23.34
2022-10-30T13:11:13.056Z,23.23
2022-10-30T13:14:00.580Z,23.41
2022-10-30T13:16:45.799Z,23.35
2022-10-30T13:19:29.760Z,23.13
2022-10-30T13:22:20.770Z,23.36
2022-10-30T13:25:15.994Z,23.51
2022-10-30T13:28:06.237Z,23.57
2022-10-30T13:31:02.553Z,23.33
2022-10-30T13:33:56.387Z,23.10
2022-10-30T13:36:46.963Z,22.97
2022-10-30T13:39:37.086Z,23.02
2022-10-30T13:42:33.310Z,22.41
2022-10-30T13:45:36.214Z,23.00
2022-10-30T13:48:34.797Z,23.01
2022-10-30T13:51:34.934Z,22.65
2022-10-30T13:54:22.609Z,22.63
2022-10-30T13:57:14.252Z,22.64
2022-10-30T14:00:14.297Z,22.80
2022-10-30T14:03:22.504Z,22.81
2022-10-30T14:06:13.786Z,22.00
2022-10-30T14:09:07.648Z,22.00
2022-10-30T14:11:54.507Z,21.95
2022-10-30T14:14:48.879Z,21.07
2022-10-30T14:17:32.684Z,21.40
2022-10-30T14:20:26.762Z,21.08
2022-10-30T14:23:15.870Z,21.20
2022-10-30T14:26:21.789Z,21.04
2022-10-30T14:29:38.672Z,20.83
2022-10-30T14:32:42.921Z,20.54
2022-10-30T14:35:44.678Z,20.45
2022-10-30T14:38:31.563Z,20.33
2022-10-30T14:41:35.185Z,20.14
2022-10-30T14:44:51.533Z,19.91
2022-10-30T14:47:55.851Z,19.56
2022-10-30T14:51:05.776Z,19.54
2022-10-30T14:54:01.721Z,19.35
2022-10-30T14:56:49.724Z,19.26
2022-10-30T14:59:35.509Z,19.10
2022-10-30T15:02:32.428Z,19.01
2022-10-30T15:05:40.709Z,18.83
2022-10-30T15:08:47.172Z,18.68
2022-10-30T15:11:47.933Z,18.65
2022-10-30T15:14:53.482Z,18.42
2022-10-30T15:17:40.777Z,18.33
2022-10-30T15:20:26.635Z,18.29
2022-10-30T15:23:17.680Z,18.21
2022-10-30T15:26:09.486Z,18.07
2022-10-30T15:28:55.148Z,18.12
2022-10-30T15:31:40.325Z,17.87
2022-10-30T15:34:24.476Z,17.91
2022-10-30T15:37:13.282Z,17.89
2022-10-30T15:40:12.595Z,17.53
2022-10-30T15:42:57.933Z,17.53
2022-10-30T15:45:44.012Z,17.31
2022-10-30T15:48:31.213Z,17.29
2022-10-30T15:51:18.370Z,17.02
2022-10-30T15:54:03.841Z,17.22
2022-10-30T15:57:27.062Z,16.99
2022-10-30T15:59:58.341Z,17.06
2022-10-30T16:02:42.106Z,16.97
2022-10-30T16:05:27.918Z,16.88
2022-10-30T16:08:15.856Z,16.82
2022-10-30T16:10:59.757Z,16.76
2022-10-30T16:13:44.170Z,16.65
2022-10-30T16:16:30.522Z,16.39
2022-10-30T16:19:28.041Z,16.49
2022-10-30T16:22:26.046Z,16.82
2022-10-30T16:25:12.910Z,16.85
2022-10-30T16:27:57.005Z,16.86
2022-10-30T16:30:41.152Z,16.83
2022-10-30T16:33:28.693Z,16.32
2022-10-30T16:36:17.015Z,17.01
2022-10-30T16:39:02.890Z,17.07
2022-10-30T16:41:47.603Z,17.08
2022-10-30T16:44:32.829Z,17.33
2022-10-30T16:47:25.850Z,17.42
2022-10-30T16:50:15.966Z,17.23
2022-10-30T16:53:06.689Z,17.30
2022-10-30T16:55:52.426Z,17.02
2022-10-30T16:58:36.186Z,17.35
2022-10-30T17:01:24.846Z,17.17
2022-10-30T17:04:09.124Z,17.37
2022-10-30T17:07:09.162Z,17.11
2022-10-30T17:09:55.685Z,17.58
2022-10-30T17:12:40.803Z,17.50
2022-10-30T17:15:25.406Z,17.43
2022-10-30T17:18:17.965Z,17.41
2022-10-30T17:21:08.217Z,17.39
2022-10-30T17:23:54.005Z,17.29
2022-10-30T17:26:40.157Z,17.20
2022-10-30T17:29:46.658Z,17.31
2022-10-30T17:32:42.857Z,17.34
2022-10-30T17:35:26.633Z,17.18
2022-10-30T17:38:10.569Z,17.24
2022-10-30T17:40:55.058Z,17.21
2022-10-30T17:43:50.531Z,17.28
2022-10-30T17:46:35.724Z,17.32
2022-10-30T17:49:26.282Z,17.32
2022-10-30T17:52:13.454Z,17.34
2022-10-30T17:54:57.286Z,17.32
2022-10-30T17:57:41.126Z,17.15
2022-10-30T18:00:25.089Z,17.15
2022-10-30T18:03:10.461Z,16.76
2022-10-30T18:05:55.689Z,17.03
2022-10-30T18:08:39.725Z,17.04
2022-10-30T18:11:27.300Z,17.12
2022-10-30T18:14:12.281Z,17.08
2022-10-30T18:16:56.683Z,17.00
2022-10-30T18:19:42.054Z,16.96
2022-10-30T18:22:25.779Z,16.87
2022-10-30T18:25:17.965Z,16.87
2022-10-30T18:28:01.850Z,16.98
2022-10-30T18:30:50.348Z,17.00
2022-10-30T18:33:34.200Z,17.05
2022-10-30T18:36:20.807Z,17.06
2022-10-30T18:39:04.653Z,16.94
2022-10-30T18:41:49.593Z,16.99
2022-10-30T18:44:33.511Z,16.98
2022-10-30T18:47:17.362Z,17.00
2022-10-30T18:50:01.183Z,16.94
2022-10-30T18:52:46.653Z,16.97
2022-10-30T18:55:34.823Z,16.95
2022-10-30T18:58:18.657Z,16.92
2022-10-30T19:01:17.869Z,16.67
2022-10-30T19:04:03.682Z,16.98
2022-10-30T19:06:47.747Z,16.92
2022-10-30T19:09:32.952Z,16.71
2022-10-30T19:12:17.745Z,16.98
2022-10-30T19:15:01.670Z,17.02
2022-10-30T19:17:47.151Z,17.05
2022-10-30T19:20:50.620Z,17.03
2022-10-30T19:23:36.122Z,16.69
2022-10-30T19:26:21.210Z,16.86
2022-10-30T19:29:04.934Z,16.67
2022-10-30T19:31:49.232Z,16.95
2022-10-30T19:34:32.924Z,17.05
2022-10-30T19:37:16.697Z,16.58
2022-10-30T19:40:01.383Z,16.44
2022-10-30T19:42:46.826Z,16.41
2022-10-30T19:45:33.082Z,16.23
2022-10-30T19:48:24.888Z,16.13
2022-10-30T19:51:18.187Z,16.18
2022-10-30T19:54:01.867Z,16.26
2022-10-30T19:56:45.586Z,16.09
2022-10-30T19:59:30.700Z,15.95
2022-10-30T20:02:14.441Z,16.13
2022-10-30T20:04:58.345Z,16.12
2022-10-30T20:07:42.664Z,16.03
2022-10-30T20:10:26.530Z,16.02
2022-10-30T20:13:12.275Z,15.96
2022-10-30T20:15:59.950Z,16.21
2022-10-30T20:18:43.982Z,16.35
2022-10-30T20:21:28.961Z,15.83
2022-10-30T20:24:13.008Z,16.05
2022-10-30T20:26:57.885Z,16.27
2022-10-30T20:29:43.886Z,16.46
2022-10-30T20:32:29.844Z,16.54
2022-10-30T20:35:14.839Z,16.54
2022-10-30T20:38:01.687Z,16.46
2022-10-30T20:40:46.107Z,16.49
2022-10-30T20:43:32.077Z,15.95
2022-10-30T20:46:17.536Z,16.25
2022-10-30T20:49:16.805Z,15.87
2022-10-30T20:52:02.002Z,15.92
2022-10-30T20:54:46.253Z,15.56
2022-10-30T20:57:30.284Z,16.31
2022-10-30T21:00:15.773Z,16.17
2022-10-30T21:02:59.670Z,16.03
2022-10-30T21:05:46.357Z,16.12
2022-10-30T21:08:32.669Z,16.01
2022-10-30T21:11:16.803Z,15.86
2022-10-30T21:14:00.814Z,16.20
2022-10-30T21:16:48.506Z,15.73
2022-10-30T21:19:32.741Z,16.31
2022-10-30T21:22:18.216Z,16.09
2022-10-30T21:25:02.167Z,16.30
2022-10-30T21:27:46.856Z,16.17
2022-10-30T21:30:30.953Z,16.37
2022-10-30T21:33:14.917Z,16.35
2022-10-30T21:35:58.920Z,16.19
2022-10-30T21:38:45.669Z,16.11
2022-10-30T21:41:29.652Z,16.18
2022-10-30T21:44:15.571Z,16.23
2022-10-30T21:46:59.579Z,15.85
2022-10-30T21:49:43.505Z,16.54
2022-10-30T21:52:27.753Z,16.37
2022-10-30T21:55:13.131Z,16.49
2022-10-30T21:57:57.286Z,16.45
2022-10-30T22:00:41.492Z,16.64
2022-10-30T22:03:25.442Z,16.68
2022-10-30T22:06:11.115Z,16.47
2022-10-30T22:08:56.577Z,16.52
2022-10-30T22:11:42.043Z,16.41
2022-10-30T22:14:27.062Z,16.26
2022-10-30T22:17:11.194Z,16.44
2022-10-30T22:19:55.115Z,15.94
2022-10-30T22:22:39.145Z,15.93
2022-10-30T22:25:23.223Z,15.98
2022-10-30T22:28:08.549Z,16.29
2022-10-30T22:30:52.662Z,16.36
2022-10-30T22:33:37.466Z,16.36
2022-10-30T22:36:23.435Z,16.27
2022-10-30T22:39:09.985Z,16.12
2022-10-30T22:41:53.866Z,15.99
2022-10-30T22:44:39.232Z,15.81
2022-10-30T22:47:23.234Z,15.90
2022-10-30T22:50:08.047Z,16.14
2022-10-30T22:52:52.160Z,15.99
2022-10-30T22:55:36.116Z,16.02
2022-10-30T22:58:20.242Z,15.86
2022-10-30T23:01:10.949Z,15.95
2022-10-30T23:03:57.669Z,15.86
2022-10-30T23:06:41.564Z,15.86
2022-10-30T23:09:25.468Z,16.15
2022-10-30T23:12:09.775Z,15.92
2022-10-30T23:14:53.717Z,16.35
2022-10-30T23:17:39.137Z,16.37
2022-10-30T23:20:23.130Z,16.67
2022-10-30T23:23:07.002Z,16.40
2022-10-30T23:25:51.057Z,16.50
2022-10-30T23:28:35.025Z,16.22
2022-10-30T23:31:21.283Z,16.21
2022-10-30T23:34:08.496Z,16.17
2022-10-30T23:36:53.525Z,16.44
2022-10-30T23:39:39.230Z,16.27
2022-10-30T23:42:23.111Z,16.50
2022-10-30T23:45:07.906Z,16.58
2022-10-30T23:47:51.907Z,16.54
2022-10-30T23:50:37.894Z,16.34
2022-10-30T23:53:21.800Z,16.27
2022-10-30T23:56:06.675Z,16.34
2022-10-30T23:58:52.349Z,16.50
